Time;durP1;ratioP1;P1;durP2;ratioP2;P2;SDS_P1;SDS_P2;PMS_P1;PMS_P2;Temp;Humidity;BMP_temperature;BMP_pressure;BME280_temperature;BME280_humidity;BME280_pressure;Samples;Min_cycle;Max_cycle;Signal;HPM_P1;HPM_P2
2022/08/24 00:01:15;;;;;;;58.78;48.35;;;18.60;99.90;;;;;;5051550;28;20106;-85
2022/08/24 00:03:42;;;;;;;47.10;40.50;;;18.60;99.90;;;;;;5027453;28;20033;-86
2022/08/24 00:06:11;;;;;;;47.85;40.72;;;18.50;99.90;;;;;;5056329;28;20341;-87
2022/08/24 00:08:37;;;;;;;50.42;41.47;;;18.50;99.90;;;;;;5041932;28;20049;-86
2022/08/24 00:11:04;;;;;;;47.70;42.55;;;18.40;99.90;;;;;;5055513;28;20131;-86
2022/08/24 00:13:30;;;;;;;55.53;45.38;;;18.30;99.90;;;;;;5030225;28;20319;-87
2022/08/24 00:15:56;;;;;;;70.93;52.00;;;18.30;99.90;;;;;;5054181;28;20040;-86
2022/08/24 00:18:22;;;;;;;59.72;49.22;;;18.30;99.90;;;;;;5055810;28;20472;-86
2022/08/24 00:20:48;;;;;;;59.20;49.55;;;18.30;99.90;;;;;;5067940;28;20509;-87
2022/08/24 00:23:14;;;;;;;56.22;47.38;;;18.30;99.90;;;;;;5050761;28;20091;-87
2022/08/24 00:25:40;;;;;;;71.25;55.15;;;18.20;99.90;;;;;;5018050;28;20068;-86
2022/08/24 00:28:06;;;;;;;59.22;47.13;;;18.30;99.90;;;;;;5028803;28;20172;-87
2022/08/24 00:30:33;;;;;;;54.58;45.40;;;18.30;99.90;;;;;;5054616;28;20056;-86
2022/08/24 00:32:59;;;;;;;64.43;48.92;;;18.20;99.90;;;;;;5060944;28;20094;-87
2022/08/24 00:35:25;;;;;;;50.20;43.72;;;18.20;99.90;;;;;;5077731;28;20505;-87
2022/08/24 00:37:52;;;;;;;55.20;44.85;;;18.20;99.90;;;;;;5044632;28;20376;-87
2022/08/24 00:40:28;;;;;;;57.20;46.05;;;18.10;99.90;;;;;;5049181;28;20055;-88
2022/08/24 00:42:55;;;;;;;49.67;42.13;;;18.10;99.90;;;;;;5068277;28;20041;-87
2022/08/24 00:45:23;;;;;;;47.50;41.47;;;18.00;99.90;;;;;;5043711;28;20122;-87
2022/08/24 00:47:57;;;;;;;62.67;48.90;;;18.00;99.90;;;;;;5062688;28;20033;-87
2022/08/24 00:50:31;;;;;;;48.22;41.38;;;18.10;99.90;;;;;;5053750;28;20045;-88
2022/08/24 00:53:01;;;;;;;52.40;45.37;;;18.00;99.90;;;;;;5061024;28;20064;-87
2022/08/24 00:55:38;;;;;;;52.30;44.63;;;18.00;99.90;;;;;;5049778;28;20056;-87
2022/08/24 00:58:11;;;;;;;66.60;51.55;;;18.00;99.90;;;;;;5058696;28;20093;-87
2022/08/24 01:00:43;;;;;;;85.32;58.28;;;18.00;99.90;;;;;;5035486;28;20297;-87
2022/08/24 01:03:10;;;;;;;50.47;41.05;;;18.10;99.90;;;;;;5061914;28;20408;-87
2022/08/24 01:05:37;;;;;;;48.28;39.25;;;18.00;99.90;;;;;;5047112;28;20040;-87
2022/08/24 01:08:06;;;;;;;45.40;37.85;;;17.90;99.90;;;;;;5045933;28;20048;-86
2022/08/24 01:10:39;;;;;;;55.63;46.72;;;17.90;99.90;;;;;;5030328;28;20033;-87
2022/08/24 01:13:08;;;;;;;59.67;49.47;;;18.00;99.90;;;;;;5051792;28;20087;-87
2022/08/24 01:15:37;;;;;;;61.70;48.92;;;18.00;99.90;;;;;;5053863;28;20045;-87
2022/08/24 01:21:07;;;;;;;50.10;42.17;;;17.80;99.90;;;;;;5059622;28;20067;-86
2022/08/24 01:23:34;;;;;;;61.08;50.30;;;17.80;99.90;;;;;;5059810;28;20652;-87
2022/08/24 01:26:01;;;;;;;63.47;49.67;;;17.90;99.90;;;;;;5057361;28;20116;-87
2022/08/24 01:28:29;;;;;;;77.07;55.88;;;17.90;99.90;;;;;;5041628;28;20489;-88
2022/08/24 01:30:55;;;;;;;109.80;67.70;;;18.00;99.90;;;;;;5047583;28;20077;-87
2022/08/24 01:33:27;;;;;;;98.85;60.08;;;18.10;99.90;;;;;;5051943;28;20067;-87
2022/08/24 01:36:17;;;;;;;69.85;48.78;;;18.10;99.90;;;;;;5046015;28;20038;-87
2022/08/24 01:38:44;;;;;;;46.33;39.47;;;18.00;99.90;;;;;;5044756;28;20044;-87
2022/08/24 01:41:09;;;;;;;51.58;44.03;;;17.90;99.90;;;;;;5053990;28;20033;-86
2022/08/24 01:43:35;;;;;;;47.63;41.88;;;17.80;99.90;;;;;;5045668;28;20592;-86
2022/08/24 01:46:01;;;;;;;81.78;57.53;;;17.70;99.90;;;;;;5044554;28;20041;-86
2022/08/24 01:48:27;;;;;;;48.08;40.38;;;17.90;99.90;;;;;;5026868;28;20414;-87
2022/08/24 01:50:53;;;;;;;55.78;45.75;;;17.70;99.90;;;;;;5064760;28;20025;-86
2022/08/24 01:53:19;;;;;;;60.97;47.22;;;17.60;99.90;;;;;;5051318;28;20040;-85
2022/08/24 01:55:45;;;;;;;69.07;52.42;;;17.50;99.90;;;;;;5051094;28;20336;-87
2022/08/24 01:58:11;;;;;;;49.20;41.88;;;17.60;99.90;;;;;;5051550;28;20126;-87
2022/08/24 02:00:37;;;;;;;46.70;39.85;;;17.50;99.90;;;;;;5031643;28;20484;-86
2022/08/24 02:03:03;;;;;;;52.65;44.40;;;17.50;99.90;;;;;;5031355;28;20043;-86
2022/08/24 02:05:30;;;;;;;49.78;42.05;;;17.50;99.90;;;;;;5019061;28;20090;-87
2022/08/24 02:07:57;;;;;;;48.28;41.05;;;17.50;99.90;;;;;;5038651;28;20061;-86
2022/08/24 02:10:23;;;;;;;54.33;42.85;;;17.50;99.90;;;;;;5057634;28;20045;-87
2022/08/24 02:12:56;;;;;;;53.17;42.53;;;17.40;99.90;;;;;;5057824;28;20400;-87
2022/08/24 02:15:36;;;;;;;43.78;38.17;;;17.40;99.90;;;;;;5035161;28;20044;-86
2022/08/24 02:18:03;;;;;;;51.75;41.00;;;17.50;99.90;;;;;;5025948;28;20045;-87
2022/08/24 02:20:29;;;;;;;50.58;41.80;;;17.50;99.90;;;;;;5045336;28;20313;-86
2022/08/24 02:22:55;;;;;;;53.63;43.60;;;17.40;99.90;;;;;;5037824;28;20317;-86
2022/08/24 02:25:22;;;;;;;64.32;48.10;;;17.50;99.90;;;;;;5051238;28;20092;-86
2022/08/24 02:27:48;;;;;;;49.95;42.88;;;17.40;99.90;;;;;;5026886;28;20041;-86
2022/08/24 02:30:15;;;;;;;50.22;41.47;;;17.40;99.90;;;;;;5028385;28;20052;-86
2022/08/24 02:32:40;;;;;;;47.38;40.78;;;17.40;99.90;;;;;;5027989;28;20166;-86
2022/08/24 02:35:07;;;;;;;44.80;35.38;;;17.30;99.90;;;;;;5025876;28;20506;-87
2022/08/24 02:37:33;;;;;;;43.70;38.58;;;17.40;99.90;;;;;;5053916;28;20038;-87
2022/08/24 02:40:00;;;;;;;46.15;38.25;;;17.30;99.90;;;;;;5057564;28;20059;-87
2022/08/24 02:42:26;;;;;;;33.85;30.25;;;17.20;99.90;;;;;;5043542;28;20047;-85
2022/08/24 02:44:54;;;;;;;65.65;47.80;;;17.10;99.90;;;;;;5076949;28;20091;-84
2022/08/24 02:47:19;;;;;;;47.38;39.67;;;17.30;99.90;;;;;;5054737;28;20219;-85
2022/08/24 02:49:47;;;;;;;45.85;36.95;;;17.20;99.90;;;;;;5042609;28;20170;-84
2022/08/24 02:52:13;;;;;;;38.35;33.38;;;17.20;99.90;;;;;;5049224;28;20037;-85
2022/08/24 02:54:39;;;;;;;38.58;33.65;;;17.10;99.90;;;;;;5056786;28;20049;-85
2022/08/24 02:57:04;;;;;;;42.38;37.83;;;17.10;99.90;;;;;;5050632;28;20351;-85
2022/08/24 02:59:30;;;;;;;58.58;46.15;;;17.10;99.90;;;;;;5075900;28;20262;-85
2022/08/24 03:01:56;;;;;;;44.35;37.80;;;17.10;99.90;;;;;;5055351;28;20060;-84
2022/08/24 03:04:22;;;;;;;41.90;36.70;;;17.10;99.90;;;;;;5053031;28;20045;-84
2022/08/24 03:06:48;;;;;;;46.63;38.78;;;17.00;99.90;;;;;;5054796;28;20459;-85
2022/08/24 03:09:16;;;;;;;48.03;38.78;;;17.10;99.90;;;;;;5030117;28;20068;-84
2022/08/24 03:11:41;;;;;;;56.15;44.58;;;17.10;99.90;;;;;;5038320;28;20556;-84
2022/08/24 03:14:07;;;;;;;42.97;36.88;;;17.00;99.90;;;;;;5037022;28;20207;-84
2022/08/24 03:16:33;;;;;;;41.60;36.38;;;17.00;99.90;;;;;;5031968;28;20041;-84
2022/08/24 03:18:59;;;;;;;50.95;41.22;;;17.00;99.90;;;;;;5041744;28;20067;-84
2022/08/24 03:21:25;;;;;;;48.83;39.95;;;17.00;99.90;;;;;;5058919;28;20060;-85
2022/08/24 03:23:51;;;;;;;43.45;38.03;;;17.00;99.90;;;;;;5038373;28;20029;-84
2022/08/24 03:26:18;;;;;;;47.70;40.65;;;17.00;99.90;;;;;;5037573;28;20029;-84
2022/08/24 03:28:44;;;;;;;38.50;33.50;;;17.00;99.90;;;;;;5059801;28;20025;-85
2022/08/24 03:31:09;;;;;;;39.80;34.30;;;16.90;99.90;;;;;;5057629;28;20510;-85
2022/08/24 03:33:35;;;;;;;46.80;38.97;;;16.90;99.90;;;;;;5044780;28;20065;-85
2022/08/24 03:36:00;;;;;;;52.33;40.28;;;17.00;99.90;;;;;;5053623;28;20032;-85
2022/08/24 03:38:27;;;;;;;50.75;40.00;;;17.00;99.90;;;;;;5052012;28;20032;-85
2022/08/24 03:40:53;;;;;;;42.80;36.33;;;17.00;99.90;;;;;;5052217;28;20190;-85
2022/08/24 03:46:06;;;;;;;49.13;40.60;;;16.90;99.90;;;;;;5045618;28;20127;-85
2022/08/24 03:48:32;;;;;;;42.10;36.70;;;17.00;99.90;;;;;;5063941;28;20044;-85
2022/08/24 03:50:58;;;;;;;38.80;34.45;;;16.90;99.90;;;;;;5054486;28;20523;-85
2022/08/24 03:53:23;;;;;;;61.58;44.38;;;16.80;99.90;;;;;;5043032;28;20171;-85
2022/08/24 03:55:49;;;;;;;43.38;37.58;;;16.80;99.90;;;;;;5067680;28;20195;-85
2022/08/24 03:58:16;;;;;;;41.88;36.22;;;16.80;99.90;;;;;;5033762;28;20043;-85
2022/08/24 04:00:42;;;;;;;42.75;36.28;;;16.80;99.90;;;;;;5052261;28;20597;-85
2022/08/24 04:03:12;;;;;;;51.13;41.00;;;16.80;99.90;;;;;;5056133;28;20045;-85
2022/08/24 04:05:39;;;;;;;42.17;36.25;;;16.80;99.90;;;;;;5050492;28;20056;-85
2022/08/24 04:08:05;;;;;;;45.90;35.97;;;16.80;99.90;;;;;;5053841;28;20059;-85
2022/08/24 04:10:32;;;;;;;48.13;36.38;;;16.80;99.90;;;;;;5055150;28;20032;-85
2022/08/24 04:13:00;;;;;;;47.80;37.33;;;16.80;99.90;;;;;;5058277;28;20183;-85
2022/08/24 04:15:26;;;;;;;43.00;35.80;;;16.80;99.90;;;;;;5052292;28;20138;-85
2022/08/24 04:17:55;;;;;;;56.55;43.35;;;16.80;99.90;;;;;;5066866;28;20480;-85
2022/08/24 04:20:20;;;;;;;45.05;38.55;;;16.90;99.90;;;;;;5062070;28;20033;-85
2022/08/24 04:22:46;;;;;;;50.10;39.10;;;16.80;99.90;;;;;;5076189;28;20400;-85
2022/08/24 04:25:12;;;;;;;51.78;41.00;;;16.70;99.90;;;;;;5052989;28;20043;-84
2022/08/24 04:27:39;;;;;;;52.05;41.17;;;16.70;99.90;;;;;;5023805;28;20043;-85
2022/08/24 04:30:05;;;;;;;50.85;40.63;;;16.80;99.90;;;;;;5037400;28;21118;-85
2022/08/24 04:32:32;;;;;;;50.53;40.63;;;16.80;99.90;;;;;;5067829;28;20045;-85
2022/08/24 04:34:58;;;;;;;44.35;34.22;;;16.80;99.90;;;;;;5055743;28;20037;-85
2022/08/24 04:37:24;;;;;;;43.10;34.15;;;16.80;99.90;;;;;;5054214;28;20106;-85
2022/08/24 04:39:51;;;;;;;64.65;48.83;;;16.80;99.90;;;;;;5043449;28;20448;-86
2022/08/24 04:42:18;;;;;;;77.10;51.78;;;17.00;99.90;;;;;;5058443;28;20049;-87
2022/08/24 04:44:44;;;;;;;43.85;34.03;;;17.20;99.90;;;;;;5046285;28;20415;-86
2022/08/24 04:47:10;;;;;;;35.35;29.50;;;17.00;99.90;;;;;;5053238;28;20339;-86
2022/08/24 04:49:37;;;;;;;32.20;28.40;;;16.90;99.90;;;;;;5030776;28;20046;-85
2022/08/24 04:52:03;;;;;;;32.22;27.63;;;16.90;99.90;;;;;;5072623;28;20119;-87
2022/08/24 04:54:31;;;;;;;32.25;27.95;;;17.00;99.90;;;;;;5047735;28;20051;-87
2022/08/24 04:56:59;;;;;;;29.95;26.70;;;17.00;99.90;;;;;;5029201;28;20041;-86
2022/08/24 04:59:25;;;;;;;29.95;25.75;;;17.10;99.90;;;;;;5055612;28;20205;-86
2022/08/24 05:01:51;;;;;;;38.13;33.30;;;17.00;99.90;;;;;;5047454;28;20162;-86
2022/08/24 05:04:16;;;;;;;40.95;33.50;;;17.10;99.90;;;;;;5041876;28;20041;-86
2022/08/24 05:06:42;;;;;;;33.38;28.83;;;17.10;99.90;;;;;;5058339;28;20100;-87
2022/08/24 05:09:11;;;;;;;35.38;28.48;;;17.10;99.90;;;;;;5057131;28;20761;-86
2022/08/24 05:11:39;;;;;;;34.90;27.77;;;17.00;99.90;;;;;;5032019;28;20119;-87
2022/08/24 05:14:05;;;;;;;30.42;27.23;;;17.10;99.90;;;;;;5053119;28;20071;-87
2022/08/24 05:16:33;;;;;;;31.60;28.17;;;17.00;99.90;;;;;;5040663;28;20036;-87
2022/08/24 05:19:00;;;;;;;33.30;29.63;;;17.00;99.90;;;;;;5030021;28;20576;-87
2022/08/24 05:21:27;;;;;;;30.88;27.55;;;17.10;99.90;;;;;;5054864;28;20033;-87
2022/08/24 05:23:53;;;;;;;37.67;33.58;;;17.20;99.90;;;;;;5061306;28;20058;-86
2022/08/24 05:26:23;;;;;;;39.80;34.20;;;17.30;99.90;;;;;;5057154;28;20416;-87
2022/08/24 05:28:49;;;;;;;39.17;34.00;;;17.40;99.90;;;;;;5054173;28;20036;-88
2022/08/24 05:31:20;;;;;;;45.13;36.00;;;17.50;99.90;;;;;;5031171;28;20079;-86
2022/08/24 05:33:47;;;;;;;35.67;31.73;;;17.60;99.90;;;;;;5060276;28;20037;-87
2022/08/24 05:36:21;;;;;;;46.65;35.10;;;17.70;99.90;;;;;;5074906;28;20043;-86
2022/08/24 05:38:48;;;;;;;39.70;32.47;;;17.70;99.90;;;;;;5034176;28;20055;-86
2022/08/24 05:41:15;;;;;;;46.42;38.40;;;17.70;99.90;;;;;;5050789;28;20033;-86
2022/08/24 05:43:42;;;;;;;41.85;35.60;;;17.80;99.90;;;;;;5029356;28;20547;-86
2022/08/24 05:46:07;;;;;;;37.45;33.45;;;18.00;99.90;;;;;;5045339;28;20075;-86
2022/08/24 05:48:37;;;;;;;39.97;33.67;;;18.00;99.90;;;;;;5064706;28;20036;-86
2022/08/24 05:51:04;;;;;;;34.58;30.98;;;18.10;99.90;;;;;;5056358;28;20033;-86
2022/08/24 05:53:31;;;;;;;39.35;35.08;;;18.20;99.90;;;;;;5034128;28;20108;-86
2022/08/24 05:55:56;;;;;;;45.08;37.70;;;18.30;99.90;;;;;;5032102;28;20936;-87
2022/08/24 05:58:23;;;;;;;45.17;37.88;;;18.40;99.90;;;;;;5035119;28;20132;-86
2022/08/24 06:00:49;;;;;;;44.10;39.20;;;18.60;99.90;;;;;;5059223;28;20033;-85
2022/08/24 06:03:15;;;;;;;49.17;41.25;;;18.60;99.90;;;;;;5037256;28;20029;-87
2022/08/24 06:05:43;;;;;;;46.40;39.55;;;18.90;99.90;;;;;;5023452;28;20037;-86
2022/08/24 06:08:10;;;;;;;57.45;45.47;;;19.00;99.90;;;;;;5049660;28;20124;-86
2022/08/24 06:10:46;;;;;;;57.38;43.42;;;19.00;99.90;;;;;;5026112;28;20048;-87
2022/08/24 06:13:13;;;;;;;51.67;43.65;;;19.10;99.90;;;;;;5061689;28;20067;-86
2022/08/24 06:15:40;;;;;;;50.10;42.88;;;19.20;99.90;;;;;;5025213;28;20056;-87
2022/08/24 06:18:06;;;;;;;50.97;43.53;;;19.40;99.90;;;;;;5044639;28;20464;-87
2022/08/24 06:20:37;;;;;;;46.03;40.53;;;19.40;99.90;;;;;;5056225;28;20164;-87
2022/08/24 06:23:03;;;;;;;47.35;40.50;;;19.60;99.90;;;;;;5052996;28;20543;-87
2022/08/24 06:28:17;;;;;;;50.13;42.38;;;19.90;99.90;;;;;;5049092;28;20052;-86
2022/08/24 06:30:43;;;;;;;53.05;44.88;;;20.00;99.90;;;;;;5031726;28;20032;-86
2022/08/24 06:33:09;;;;;;;52.03;46.17;;;20.10;99.90;;;;;;5040618;28;20067;-86
2022/08/24 06:35:34;;;;;;;52.45;44.72;;;20.20;99.90;;;;;;5045364;28;20040;-87
2022/08/24 06:38:00;;;;;;;49.45;43.60;;;20.30;99.90;;;;;;5049073;28;20033;-87
2022/08/24 06:40:28;;;;;;;48.22;43.10;;;20.40;99.90;;;;;;5022956;28;20041;-86
2022/08/24 06:42:54;;;;;;;47.55;42.35;;;20.50;99.90;;;;;;5054253;28;20072;-87
2022/08/24 06:45:21;;;;;;;47.05;41.90;;;20.60;99.90;;;;;;5052933;28;20033;-86
2022/08/24 06:47:46;;;;;;;44.35;39.65;;;20.70;99.90;;;;;;5034573;28;20071;-86
2022/08/24 06:50:12;;;;;;;44.55;39.75;;;20.80;99.90;;;;;;5052895;28;20076;-86
2022/08/24 06:52:38;;;;;;;42.83;38.33;;;20.90;99.90;;;;;;5040851;28;20045;-85
2022/08/24 06:55:05;;;;;;;39.40;34.95;;;20.90;99.90;;;;;;5030144;28;20547;-87
2022/08/24 06:57:31;;;;;;;40.72;36.28;;;21.00;58.60;;;;;;5048515;28;20125;-87
2022/08/24 06:59:57;;;;;;;38.92;34.83;;;21.10;1.00;;;;;;5028690;28;20120;-86
2022/08/24 07:02:22;;;;;;;39.88;34.28;;;21.20;99.90;;;;;;5038524;28;20304;-86
2022/08/24 07:04:48;;;;;;;36.63;32.92;;;21.30;99.90;;;;;;5024127;28;20048;-87
2022/08/24 07:07:15;;;;;;;35.40;31.63;;;21.30;99.90;;;;;;5047424;28;20176;-86
2022/08/24 07:09:40;;;;;;;34.05;30.27;;;21.50;7.70;;;;;;5052929;28;20345;-86
2022/08/24 07:12:06;;;;;;;31.88;28.58;;;21.60;1.00;;;;;;5054530;28;20047;-86
2022/08/24 07:14:32;;;;;;;30.58;25.17;;;21.70;1.00;;;;;;5020843;28;20124;-86
2022/08/24 07:17:01;;;;;;;28.48;25.48;;;21.70;39.80;;;;;;5067172;28;20047;-87
2022/08/24 07:19:26;;;;;;;26.67;23.88;;;21.90;99.90;;;;;;5062389;28;20077;-87
2022/08/24 07:21:57;;;;;;;24.45;22.15;;;22.00;99.90;;;;;;5032683;28;20288;-87
2022/08/24 07:24:23;;;;;;;23.85;21.23;;;22.10;77.10;;;;;;5031577;28;20535;-87
2022/08/24 07:26:48;;;;;;;22.08;19.80;;;22.20;99.90;;;;;;5028125;28;20047;-86
2022/08/24 07:29:14;;;;;;;22.05;18.10;;;22.30;99.90;;;;;;5057897;28;20041;-87
2022/08/24 07:31:41;;;;;;;18.75;16.95;;;22.40;99.90;;;;;;5047625;28;20499;-86
2022/08/24 07:34:09;;;;;;;14.88;13.38;;;22.50;99.90;;;;;;5042905;28;20095;-86
2022/08/24 07:36:36;;;;;;;17.67;15.90;;;22.60;1.00;;;;;;5057626;28;20407;-87
2022/08/24 07:39:03;;;;;;;12.88;10.20;;;22.60;1.00;;;;;;5047343;28;20245;-86
2022/08/24 07:41:36;;;;;;;12.65;11.35;;;22.70;99.90;;;;;;5024489;28;20612;-86
2022/08/24 07:44:01;;;;;;;13.80;11.60;;;22.80;99.90;;;;;;5041458;28;20069;-86
2022/08/24 07:46:27;;;;;;;13.20;11.88;;;23.00;1.00;;;;;;5056786;28;20037;-86
2022/08/24 07:48:56;;;;;;;14.27;12.90;;;23.00;99.90;;;;;;5068282;28;20296;-87
2022/08/24 07:51:26;;;;;;;13.88;12.32;;;23.10;99.90;;;;;;5052348;28;20120;-86
2022/08/24 07:53:52;;;;;;;13.15;11.75;;;23.20;99.90;;;;;;5036621;28;20443;-87
2022/08/24 07:56:18;;;;;;;13.10;11.80;;;23.30;99.90;;;;;;5028980;28;20100;-87
2022/08/24 07:58:44;;;;;;;12.18;10.88;;;23.40;99.90;;;;;;5057426;28;20129;-85
2022/08/24 08:01:09;;;;;;;12.25;10.57;;;23.50;1.00;;;;;;5075238;28;20029;-86
2022/08/24 08:03:36;;;;;;;13.77;10.95;;;23.50;1.00;;;;;;5026246;28;20457;-85
2022/08/24 08:06:06;;;;;;;12.70;10.95;;;23.60;99.90;;;;;;5043909;28;20068;-87
2022/08/24 08:08:35;;;;;;;13.38;11.60;;;23.70;11.10;;;;;;5030030;28;20476;-86
2022/08/24 08:11:02;;;;;;;12.13;10.93;;;23.80;1.00;;;;;;5029539;28;20539;-86
2022/08/24 08:13:29;;;;;;;11.52;10.32;;;23.90;12.80;;;;;;5088223;28;20040;-86
2022/08/24 08:15:58;;;;;;;10.75;9.07;;;24.00;99.90;;;;;;5049262;28;20044;-85
2022/08/24 08:18:24;;;;;;;12.05;9.25;;;24.00;99.90;;;;;;5057999;28;20072;-86
2022/08/24 08:20:50;;;;;;;13.43;10.07;;;24.10;99.90;;;;;;5025085;28;20049;-87
2022/08/24 08:26:01;;;;;;;11.68;9.07;;;24.30;99.90;;;;;;5068572;28;20481;-86
2022/08/24 08:28:31;;;;;;;14.07;9.82;;;24.40;1.00;;;;;;5021366;28;20166;-86
2022/08/24 08:30:59;;;;;;;11.07;8.23;;;24.40;99.90;;;;;;5026333;28;20430;-86
2022/08/24 08:33:25;;;;;;;10.90;9.35;;;24.50;99.90;;;;;;5040834;28;20075;-85
2022/08/24 08:36:01;;;;;;;9.52;8.27;;;24.50;1.00;;;;;;5045758;28;20124;-86
2022/08/24 08:38:30;;;;;;;11.93;9.05;;;24.70;60.30;;;;;;5032007;28;20040;-85
2022/08/24 08:41:16;;;;;;;12.10;8.57;;;24.70;1.00;;;;;;5060168;28;20181;-86
2022/08/24 08:43:47;;;;;;;11.10;7.68;;;24.90;99.90;;;;;;5067573;28;20358;-85
2022/08/24 08:46:30;;;;;;;9.35;7.97;;;25.00;39.90;;;;;;5060696;28;20119;-86
2022/08/24 08:49:29;;;;;;;11.48;7.45;;;25.10;68.20;;;;;;5053817;28;20056;-86
2022/08/24 08:52:07;;;;;;;9.90;8.43;;;25.20;1.00;;;;;;5052558;28;20045;-86
2022/08/24 08:54:57;;;;;;;10.40;7.15;;;25.30;1.00;;;;;;5054998;28;20037;-86
2022/08/24 08:57:37;;;;;;;10.30;6.70;;;25.50;1.00;;;;;;5047699;28;20037;-84
2022/08/24 09:00:19;;;;;;;12.15;8.88;;;25.60;99.90;;;;;;5061231;28;20036;-86
2022/08/24 09:03:27;;;;;;;8.18;7.32;;;25.60;99.90;;;;;;5047936;28;20033;-86
2022/08/24 09:06:18;;;;;;;9.65;5.80;;;25.70;1.00;;;;;;5059833;28;20025;-85
2022/08/24 09:09:09;;;;;;;11.02;8.25;;;26.00;1.00;;;;;;5059569;28;20044;-87
2022/08/24 09:11:53;;;;;;;8.93;6.95;;;25.90;99.90;;;;;;5072432;28;20042;-86
2022/08/24 09:14:31;;;;;;;8.70;6.50;;;26.00;99.90;;;;;;5029470;28;20036;-86
2022/08/24 09:17:16;;;;;;;7.38;4.95;;;26.20;1.00;;;;;;5024517;28;20041;-86
2022/08/24 09:20:11;;;;;;;8.70;7.00;;;26.30;99.90;;;;;;5077696;28;20128;-86
2022/08/24 09:22:38;;;;;;;;;;;26.30;99.90;;;;;;5065732;28;20333;-86
2022/08/24 09:25:22;;;;;;;7.88;5.50;;;26.50;99.90;;;;;;5025052;28;19921;-86
2022/08/24 09:27:59;;;;;;;6.22;4.68;;;26.40;3.90;;;;;;5049182;28;20121;-85
2022/08/24 09:30:34;;;;;;;7.35;4.47;;;26.60;30.00;;;;;;5070557;28;20448;-86
2022/08/24 09:33:02;;;;;;;7.25;4.70;;;26.90;23.70;;;;;;5060127;28;20059;-86
2022/08/24 09:35:40;;;;;;;8.07;4.55;;;26.90;1.00;;;;;;5035380;28;20143;-85
2022/08/24 09:38:39;;;;;;;10.40;4.13;;;26.90;1.00;;;;;;5023525;28;20135;-87
2022/08/24 09:41:11;;;;;;;5.38;4.07;;;27.00;99.90;;;;;;5053834;28;20527;-85
2022/08/24 09:44:11;;;;;;;7.70;4.90;;;27.00;99.90;;;;;;5052980;28;20098;-86
2022/08/24 09:47:15;;;;;;;5.95;4.10;;;27.10;99.90;;;;;;5048703;28;20045;-87
2022/08/24 09:50:09;;;;;;;4.38;3.28;;;27.20;99.90;;;;;;5052212;28;20044;-86
2022/08/24 09:52:53;;;;;;;6.20;4.13;;;27.40;99.90;;;;;;5053693;28;20124;-86
2022/08/24 09:55:34;;;;;;;8.18;4.32;;;27.30;99.90;;;;;;5057702;28;20041;-86
2022/08/24 09:58:44;;;;;;;6.32;3.33;;;27.60;99.90;;;;;;5018743;28;20048;-86
2022/08/24 10:01:42;;;;;;;6.03;3.10;;;27.60;99.90;;;;;;5020008;28;20045;-87
2022/08/24 10:04:27;;;;;;;3.63;3.08;;;27.80;99.90;;;;;;5007638;28;20053;-87
2022/08/24 10:07:03;;;;;;;4.20;2.80;;;27.80;99.90;;;;;;5025592;28;20098;-86
2022/08/24 10:09:57;;;;;;;6.95;3.40;;;27.80;99.90;;;;;;5055544;28;20048;-86
2022/08/24 10:12:32;;;;;;;4.50;3.15;;;28.00;99.90;;;;;;5054505;28;20078;-88
2022/08/24 10:15:13;;;;;;;5.03;3.10;;;28.20;99.90;;;;;;5064582;28;20041;-86
2022/08/24 10:17:49;;;;;;;4.55;2.95;;;28.30;99.90;;;;;;5042119;28;20522;-86
2022/08/24 10:20:45;;;;;;;4.22;3.10;;;28.40;99.90;;;;;;5054085;28;20040;-86
2022/08/24 10:23:49;;;;;;;4.93;2.70;;;28.60;99.90;;;;;;5061151;28;20321;-86
2022/08/24 10:26:22;;;;;;;5.00;2.80;;;28.60;81.50;;;;;;5033615;28;20210;-87
2022/08/24 10:29:17;;;;;;;4.78;2.70;;;28.70;45.00;;;;;;5057395;28;20560;-86
2022/08/24 10:31:47;;;;;;;7.13;2.90;;;28.70;8.30;;;;;;5055952;28;20123;-87
2022/08/24 10:34:59;;;;;;;6.53;2.65;;;28.60;1.00;;;;;;5027299;28;20121;-87
2022/08/24 10:37:46;;;;;;;5.28;3.10;;;28.80;1.00;;;;;;5054399;28;20460;-87
2022/08/24 10:40:33;;;;;;;4.25;2.92;;;28.60;1.00;;;;;;5058994;28;20079;-86
2022/08/24 10:46:32;;;;;;;4.03;3.13;;;28.60;1.00;;;;;;5076357;28;20036;-87
2022/08/24 10:49:33;;;;;;;5.00;2.42;;;28.90;1.00;;;;;;5060639;28;20033;-86
2022/08/24 10:52:11;;;;;;;3.20;2.30;;;29.10;1.00;;;;;;5025215;28;20052;-86
2022/08/24 10:54:37;;;;;;;3.97;2.33;;;29.10;1.00;;;;;;5060945;28;20067;-87
2022/08/24 10:57:05;;;;;;;2.40;2.20;;;28.90;99.90;;;;;;5042424;28;20071;-87
2022/08/24 11:00:05;;;;;;;2.88;2.00;;;29.10;99.90;;;;;;5053006;28;20094;-86
2022/08/24 11:02:37;;;;;;;2.42;2.00;;;29.40;99.90;;;;;;5076079;28;20087;-86
2022/08/24 11:05:34;;;;;;;4.15;2.15;;;29.30;99.90;;;;;;5066489;28;20119;-86
2022/08/24 11:08:05;;;;;;;2.45;1.90;;;29.20;99.90;;;;;;5028406;28;20052;-86
2022/08/24 11:10:36;;;;;;;3.63;2.38;;;29.70;99.90;;;;;;5045893;28;20559;-85
2022/08/24 11:13:23;;;;;;;2.72;2.00;;;30.00;99.90;;;;;;5076836;28;20199;-86
2022/08/24 11:15:52;;;;;;;4.18;2.47;;;30.00;99.90;;;;;;5050321;28;20037;-86
2022/08/24 11:18:21;;;;;;;2.25;1.90;;;29.80;99.90;;;;;;5051277;28;20443;-85
2022/08/24 11:20:50;;;;;;;3.83;2.00;;;30.10;99.90;;;;;;5016388;28;20417;-86
2022/08/24 11:23:21;;;;;;;3.05;1.90;;;30.00;99.90;;;;;;5011207;28;20029;-85
2022/08/24 11:26:03;;;;;;;2.78;1.60;;;30.20;99.90;;;;;;5064405;28;20120;-86
2022/08/24 11:28:40;;;;;;;2.55;1.80;;;30.40;99.90;;;;;;5060158;28;20439;-85
2022/08/24 11:31:20;;;;;;;3.65;2.42;;;30.00;99.90;;;;;;5076087;28;20033;-85
2022/08/24 11:33:56;;;;;;;3.65;2.25;;;29.90;99.90;;;;;;5054116;28;20044;-85
2022/08/24 11:36:26;;;;;;;2.70;2.20;;;29.50;99.90;;;;;;5021443;28;20307;-86
2022/08/24 11:39:22;;;;;;;5.13;2.13;;;29.40;99.90;;;;;;5032394;28;20041;-86
2022/08/24 11:42:14;;;;;;;3.58;2.00;;;30.40;99.90;;;;;;5015847;28;20397;-85
2022/08/24 11:44:53;;;;;;;2.78;2.10;;;30.20;99.90;;;;;;5035052;28;20044;-86
2022/08/24 11:47:56;;;;;;;4.13;2.35;;;30.90;99.90;;;;;;5028892;28;20132;-85
2022/08/24 11:50:34;;;;;;;3.55;1.95;;;30.80;99.90;;;;;;5075492;28;20045;-86
2022/08/24 11:53:46;;;;;;;3.97;2.25;;;31.20;99.90;;;;;;5037112;28;20492;-85
2022/08/24 11:56:27;;;;;;;5.28;2.50;;;30.90;99.90;;;;;;5032085;28;20037;-85
2022/08/24 11:59:03;;;;;;;1.73;1.20;;;31.30;99.90;;;;;;5039019;28;20097;-86
2022/08/24 12:01:39;;;;;;;4.63;1.20;;;31.40;99.90;;;;;;5030682;28;20562;-86
2022/08/24 12:04:17;;;;;;;2.00;1.20;;;31.60;99.90;;;;;;5039484;28;20036;-85
2022/08/24 12:06:57;;;;;;;2.72;1.30;;;31.20;99.90;;;;;;5049072;28;20057;-86
2022/08/24 12:09:23;;;;;;;4.35;1.70;;;31.00;99.90;;;;;;5068171;28;20464;-85
2022/08/24 12:12:12;;;;;;;2.92;1.60;;;30.20;99.90;;;;;;5023928;28;20045;-86
2022/08/24 12:14:47;;;;;;;1.60;1.40;;;30.00;99.90;;;;;;5011000;28;20657;-85
2022/08/24 12:17:27;;;;;;;2.58;1.42;;;29.80;99.90;;;;;;5075548;28;20120;-85
2022/08/24 12:20:00;;;;;;;1.60;1.50;;;30.20;99.90;;;;;;5053930;28;20400;-86
2022/08/24 12:22:27;;;;;;;1.80;1.50;;;30.80;99.90;;;;;;5047572;28;20032;-85
2022/08/24 12:24:56;;;;;;;1.77;1.50;;;30.90;99.90;;;;;;5046871;28;20150;-85
2022/08/24 12:27:31;;;;;;;1.55;1.42;;;31.70;99.90;;;;;;5075917;28;20049;-85
2022/08/24 12:30:07;;;;;;;;;;;32.20;99.90;;;;;;5082041;28;20045;-85
2022/08/24 12:32:46;;;;;;;1.45;1.33;;;32.70;99.90;;;;;;5036269;28;20466;-86
2022/08/24 12:35:41;;;;;;;1.83;1.40;;;33.00;99.90;;;;;;5032809;28;20541;-84
2022/08/24 12:38:16;;;;;;;1.65;1.20;;;33.10;99.90;;;;;;5044165;28;20041;-85
2022/08/24 12:40:59;;;;;;;1.52;1.17;;;33.10;99.90;;;;;;5042829;28;20040;-85
2022/08/24 12:43:36;;;;;;;1.25;1.15;;;33.50;99.90;;;;;;5063669;28;20036;-85
2022/08/24 12:46:06;;;;;;;1.40;1.30;;;33.10;99.90;;;;;;5049779;28;20036;-85
2022/08/24 12:48:54;;;;;;;1.70;1.60;;;32.60;99.90;;;;;;5058265;28;20041;-85
2022/08/24 12:51:45;;;;;;;2.38;1.40;;;32.40;99.90;;;;;;5053446;28;20458;-84
2022/08/24 12:54:16;;;;;;;3.10;1.90;;;32.10;99.90;;;;;;5068342;28;20548;-85
2022/08/24 12:57:03;;;;;;;2.08;1.85;;;31.70;99.90;;;;;;5059390;28;20624;-85
2022/08/24 12:59:46;;;;;;;2.45;1.45;;;31.40;99.90;;;;;;5050603;28;20042;-85
2022/08/24 13:02:18;;;;;;;2.53;1.77;;;31.90;99.90;;;;;;5050103;28;20053;-85
2022/08/24 13:04:50;;;;;;;56.63;4.93;;;31.50;99.90;;;;;;5069823;28;20036;-86
2022/08/24 13:07:27;;;;;;;3.05;1.45;;;31.00;99.90;;;;;;5059923;28;20192;-85
2022/08/24 13:09:59;;;;;;;1.70;1.60;;;31.00;99.90;;;;;;5061923;28;20227;-85
2022/08/24 13:12:53;;;;;;;2.45;1.40;;;31.40;99.90;;;;;;5076284;28;20040;-85
2022/08/24 13:15:24;;;;;;;1.70;1.42;;;32.10;99.90;;;;;;5062609;28;20107;-86